createdAt,value
2023-02-02T00:01:21.759Z,1.65
2023-02-02T00:03:50.990Z,0.85
2023-02-02T00:06:20.660Z,1.17
2023-02-02T00:08:48.058Z,1.75
2023-02-02T00:11:15.302Z,1.90
2023-02-02T00:13:42.135Z,1.30
2023-02-02T00:16:27.190Z,2.13
2023-02-02T00:18:56.752Z,1.60
2023-02-02T00:21:24.424Z,1.25
2023-02-02T00:23:51.798Z,1.57
2023-02-02T00:26:19.239Z,2.05
2023-02-02T00:28:46.224Z,1.80
2023-02-02T00:31:12.924Z,1.55
2023-02-02T00:33:41.290Z,1.27
2023-02-02T00:36:08.341Z,1.60
2023-02-02T00:38:35.122Z,1.63
2023-02-02T00:41:01.626Z,1.67
2023-02-02T00:43:28.154Z,1.33
2023-02-02T00:45:54.827Z,1.10
2023-02-02T00:48:21.400Z,1.13
2023-02-02T00:50:48.170Z,1.52
2023-02-02T00:53:14.812Z,2.00
2023-02-02T00:55:41.286Z,1.20
2023-02-02T00:58:07.747Z,2.42
2023-02-02T01:00:34.321Z,2.20
2023-02-02T01:03:04.610Z,1.58
2023-02-02T01:05:32.008Z,1.23
2023-02-02T01:07:58.550Z,1.52
2023-02-02T01:10:25.203Z,0.93
2023-02-02T01:12:52.075Z,1.60
2023-02-02T01:15:18.858Z,1.63
2023-02-02T01:17:45.485Z,1.27
2023-02-02T01:20:19.479Z,1.40
2023-02-02T01:22:47.289Z,2.22
2023-02-02T01:25:14.309Z,2.17
2023-02-02T01:27:40.936Z,1.33
2023-02-02T01:30:08.410Z,1.13
2023-02-02T01:32:34.879Z,0.77
2023-02-02T01:35:01.421Z,1.00
2023-02-02T01:37:28.025Z,0.60
2023-02-02T01:39:54.471Z,0.47
2023-02-02T01:42:22.624Z,0.70
2023-02-02T01:45:19.397Z,0.95
2023-02-02T01:47:54.790Z,0.95
2023-02-02T01:50:26.123Z,0.57
2023-02-02T01:52:55.681Z,0.30
2023-02-02T01:55:25.321Z,0.95
2023-02-02T01:58:00.688Z,0.45
2023-02-02T02:00:27.867Z,0.60
2023-02-02T02:02:59.174Z,0.57
2023-02-02T02:05:32.743Z,0.40
2023-02-02T02:08:12.268Z,0.90
2023-02-02T02:10:39.067Z,0.80
2023-02-02T02:13:06.564Z,0.95
2023-02-02T02:16:00.500Z,0.50
2023-02-02T02:18:54.781Z,0.93
2023-02-02T02:21:49.221Z,0.60
2023-02-02T02:24:53.090Z,0.45
2023-02-02T02:27:44.516Z,1.27
2023-02-02T02:30:39.035Z,0.50
2023-02-02T02:33:21.898Z,1.05
2023-02-02T02:36:18.212Z,1.00
2023-02-02T02:38:54.595Z,0.57
2023-02-02T02:41:27.127Z,1.00
2023-02-02T02:44:02.462Z,1.13
2023-02-02T02:46:29.428Z,1.17
2023-02-02T02:49:00.744Z,1.05
2023-02-02T02:51:49.384Z,0.85
2023-02-02T02:54:22.438Z,1.50
2023-02-02T02:57:11.081Z,1.73
2023-02-02T02:59:44.509Z,1.27
2023-02-02T03:02:30.141Z,1.75
2023-02-02T03:05:15.958Z,1.50
2023-02-02T03:07:51.260Z,1.55
2023-02-02T03:10:20.607Z,1.43
2023-02-02T03:12:48.884Z,1.50
2023-02-02T03:15:17.571Z,1.98
2023-02-02T03:17:47.577Z,2.35
2023-02-02T03:20:14.358Z,1.52
2023-02-02T03:22:40.916Z,1.63
2023-02-02T03:25:11.072Z,0.73
2023-02-02T03:27:39.426Z,1.83
2023-02-02T03:30:09.157Z,2.50
2023-02-02T03:32:36.556Z,1.17
2023-02-02T03:35:03.939Z,1.83
2023-02-02T03:37:30.581Z,1.13
2023-02-02T03:39:57.219Z,1.95
2023-02-02T03:42:23.808Z,2.42
2023-02-02T03:44:50.347Z,1.48
2023-02-02T03:47:16.928Z,1.80
2023-02-02T03:49:43.667Z,2.03
2023-02-02T03:52:10.381Z,1.80
2023-02-02T03:54:36.939Z,1.52
2023-02-02T03:57:03.525Z,2.13
2023-02-02T03:59:30.240Z,1.93
2023-02-02T04:01:56.944Z,1.60
2023-02-02T04:04:23.632Z,2.70
2023-02-02T04:06:50.343Z,1.88
2023-02-02T04:09:16.931Z,2.17
2023-02-02T04:11:43.494Z,1.30
2023-02-02T04:14:10.572Z,2.28
2023-02-02T04:16:37.910Z,1.00
2023-02-02T04:19:04.942Z,1.67
2023-02-02T04:21:31.553Z,1.30
2023-02-02T04:23:58.137Z,1.30
2023-02-02T04:26:26.287Z,2.17
2023-02-02T04:28:53.769Z,1.08
2023-02-02T04:31:20.577Z,1.30
2023-02-02T04:33:47.324Z,1.55
2023-02-02T04:36:14.297Z,0.87
2023-02-02T04:38:40.867Z,3.03
2023-02-02T04:41:09.459Z,1.92
2023-02-02T04:43:37.674Z,1.00
2023-02-02T04:46:04.839Z,1.38
2023-02-02T04:48:31.872Z,1.20
2023-02-02T04:51:00.382Z,1.67
2023-02-02T04:53:27.398Z,1.50
2023-02-02T04:55:53.956Z,1.45
2023-02-02T04:58:20.507Z,1.48
2023-02-02T05:00:47.177Z,0.90
2023-02-02T05:03:13.734Z,1.35
2023-02-02T05:05:40.324Z,1.27
2023-02-02T05:08:08.339Z,1.13
2023-02-02T05:10:34.912Z,1.33
2023-02-02T05:13:01.578Z,1.50
2023-02-02T05:15:28.251Z,1.80
2023-02-02T05:17:54.818Z,1.77
2023-02-02T05:20:21.411Z,1.25
2023-02-02T05:22:51.045Z,1.60
2023-02-02T05:25:18.191Z,1.63
2023-02-02T05:27:45.793Z,1.50
2023-02-02T05:30:14.259Z,1.77
2023-02-02T05:32:41.480Z,1.58
2023-02-02T05:35:10.299Z,2.08
2023-02-02T05:37:36.931Z,1.30
2023-02-02T05:40:04.232Z,1.48
2023-02-02T05:42:30.904Z,1.33
2023-02-02T05:44:57.481Z,1.50
2023-02-02T05:47:24.044Z,1.90
2023-02-02T05:49:50.644Z,1.50
2023-02-02T05:52:20.700Z,1.00
2023-02-02T05:54:47.270Z,1.52
2023-02-02T05:57:13.909Z,1.00
2023-02-02T05:59:40.425Z,1.30
2023-02-02T06:02:07.191Z,0.97
2023-02-02T06:04:33.779Z,1.90
2023-02-02T06:07:00.277Z,1.30
2023-02-02T06:09:26.732Z,1.50
2023-02-02T06:11:53.303Z,1.52
2023-02-02T06:14:19.977Z,1.90
2023-02-02T06:16:46.701Z,1.23
2023-02-02T06:19:13.327Z,1.25
2023-02-02T06:21:39.927Z,1.63
2023-02-02T06:24:07.178Z,0.93
2023-02-02T06:26:33.851Z,1.90
2023-02-02T06:29:00.434Z,0.85
2023-02-02T06:31:27.147Z,0.85
2023-02-02T06:33:58.782Z,2.20
2023-02-02T06:36:27.183Z,1.50
2023-02-02T06:38:55.675Z,1.03
2023-02-02T06:41:22.619Z,1.10
2023-02-02T06:43:49.399Z,1.42
2023-02-02T06:46:16.646Z,0.55
2023-02-02T06:48:43.259Z,1.60
2023-02-02T06:51:09.801Z,1.00
2023-02-02T06:53:36.399Z,1.13
2023-02-02T06:56:05.583Z,1.45
2023-02-02T06:58:33.673Z,1.20
2023-02-02T07:01:10.000Z,1.77
2023-02-02T07:03:37.091Z,0.73
2023-02-02T07:06:24.217Z,1.23
2023-02-02T07:09:01.191Z,1.45
2023-02-02T07:11:30.871Z,1.92
2023-02-02T07:13:57.920Z,1.35
2023-02-02T07:16:24.685Z,1.10
2023-02-02T07:18:51.278Z,0.88
2023-02-02T07:21:20.210Z,2.28
2023-02-02T07:23:47.492Z,1.15
2023-02-02T07:26:15.300Z,1.60
2023-02-02T07:28:42.661Z,1.10
2023-02-02T07:31:21.352Z,1.90
2023-02-02T07:33:48.660Z,1.27
2023-02-02T07:36:18.676Z,2.22
2023-02-02T07:38:47.210Z,1.30
2023-02-02T07:41:15.140Z,1.30
2023-02-02T07:43:42.293Z,1.48
2023-02-02T07:46:12.934Z,1.45
2023-02-02T07:48:40.955Z,1.40
2023-02-02T07:51:11.218Z,1.20
2023-02-02T07:53:37.823Z,2.17
2023-02-02T07:56:18.942Z,1.23
2023-02-02T07:58:45.745Z,1.55
2023-02-02T08:01:14.762Z,1.35
2023-02-02T08:03:42.995Z,1.60
2023-02-02T08:06:16.025Z,1.00
2023-02-02T08:08:42.716Z,1.55
2023-02-02T08:11:11.488Z,2.50
2023-02-02T08:13:39.342Z,1.05
2023-02-02T08:16:06.846Z,1.15
2023-02-02T08:18:34.920Z,1.37
2023-02-02T08:21:02.802Z,1.15
2023-02-02T08:23:29.581Z,1.70
2023-02-02T08:26:11.427Z,1.67
2023-02-02T08:28:39.490Z,1.35
2023-02-02T08:31:16.614Z,0.87
2023-02-02T08:33:43.771Z,1.23
2023-02-02T08:36:19.586Z,1.10
2023-02-02T08:38:47.094Z,1.55
2023-02-02T08:41:18.141Z,1.13
2023-02-02T08:43:45.008Z,1.93
2023-02-02T08:46:14.686Z,0.90
2023-02-02T08:48:41.841Z,1.45
2023-02-02T08:51:11.951Z,1.67
2023-02-02T08:53:39.051Z,1.08
2023-02-02T08:56:10.360Z,1.07
2023-02-02T08:58:37.132Z,0.80
2023-02-02T09:01:06.285Z,1.25
2023-02-02T09:03:34.916Z,1.17
2023-02-02T09:06:06.833Z,1.38
2023-02-02T09:08:34.400Z,0.90
2023-02-02T09:11:07.811Z,1.23
2023-02-02T09:13:35.882Z,0.93
2023-02-02T09:16:05.190Z,1.33
2023-02-02T09:18:32.676Z,1.33
2023-02-02T09:21:01.587Z,1.30
2023-02-02T09:23:33.320Z,1.13
2023-02-02T09:26:19.838Z,1.65
2023-02-02T09:28:52.054Z,1.92
2023-02-02T09:31:19.051Z,1.05
2023-02-02T09:33:45.963Z,0.90
2023-02-02T09:36:17.537Z,1.10
2023-02-02T09:38:44.627Z,1.30
2023-02-02T09:41:26.253Z,1.50
2023-02-02T09:44:12.185Z,0.88
2023-02-02T09:47:20.042Z,0.77
2023-02-02T09:50:04.349Z,0.90
2023-02-02T09:52:44.510Z,1.00
2023-02-02T09:55:13.920Z,1.55
2023-02-02T09:57:48.961Z,1.40
2023-02-02T10:00:30.707Z,1.50
2023-02-02T10:03:04.448Z,1.08
2023-02-02T10:05:47.583Z,1.27
2023-02-02T10:08:34.311Z,1.15
2023-02-02T10:11:22.910Z,1.38
2023-02-02T10:13:53.084Z,1.27
2023-02-02T10:16:22.468Z,1.08
2023-02-02T10:18:57.896Z,1.52
2023-02-02T10:21:40.346Z,1.00
2023-02-02T10:24:17.952Z,1.15
2023-02-02T10:26:51.815Z,0.97
2023-02-02T10:29:48.596Z,1.95
2023-02-02T10:32:23.870Z,0.90
2023-02-02T10:35:21.930Z,0.77
2023-02-02T10:38:10.032Z,1.77
2023-02-02T10:40:47.770Z,1.00
2023-02-02T10:43:46.475Z,0.93
2023-02-02T10:46:24.048Z,1.40
2023-02-02T10:48:52.941Z,1.65
2023-02-02T10:51:28.360Z,1.02
2023-02-02T10:53:58.958Z,0.73
2023-02-02T10:56:54.035Z,0.88
2023-02-02T10:59:32.019Z,1.15
2023-02-02T11:02:08.714Z,0.82
2023-02-02T11:05:00.812Z,1.85
2023-02-02T11:07:27.384Z,1.43
2023-02-02T11:09:54.336Z,1.55
2023-02-02T11:12:34.959Z,1.80
2023-02-02T11:15:22.433Z,1.20
2023-02-02T11:17:48.961Z,1.98
2023-02-02T11:20:24.868Z,1.47
2023-02-02T11:23:02.025Z,1.25
2023-02-02T11:25:35.297Z,0.95
2023-02-02T11:28:18.826Z,0.90
2023-02-02T11:30:52.532Z,0.85
2023-02-02T11:33:28.489Z,1.07
2023-02-02T11:36:06.735Z,1.15
2023-02-02T11:38:33.612Z,1.25
2023-02-02T11:41:11.163Z,1.10
2023-02-02T11:43:41.900Z,1.92
2023-02-02T11:46:20.773Z,1.33
2023-02-02T11:48:54.572Z,0.80
2023-02-02T11:51:24.166Z,1.30
2023-02-02T11:54:07.524Z,0.75
2023-02-02T11:56:36.925Z,1.17
2023-02-02T11:59:04.019Z,0.70
2023-02-02T12:01:41.059Z,0.95
2023-02-02T12:04:16.215Z,1.00
2023-02-02T12:06:43.400Z,0.70
2023-02-02T12:09:23.619Z,1.10
2023-02-02T12:12:22.157Z,0.83
2023-02-02T12:14:55.469Z,0.80
2023-02-02T12:17:33.139Z,1.30
2023-02-02T12:20:36.779Z,0.82
2023-02-02T12:23:40.193Z,1.23
2023-02-02T12:26:22.505Z,1.30
2023-02-02T12:29:26.943Z,0.52
2023-02-02T12:32:05.523Z,1.35
2023-02-02T12:34:53.662Z,1.15
2023-02-02T12:37:41.240Z,1.17
2023-02-02T12:40:47.724Z,0.97
2023-02-02T12:43:41.976Z,0.82
2023-02-02T12:46:33.861Z,0.95
2023-02-02T12:49:22.284Z,0.80
2023-02-02T12:52:02.621Z,0.82
2023-02-02T12:54:52.110Z,0.70
2023-02-02T12:58:05.145Z,1.10
2023-02-02T13:01:03.349Z,0.85
2023-02-02T13:04:00.382Z,1.30
2023-02-02T13:07:04.696Z,0.95
2023-02-02T13:09:48.706Z,0.87
2023-02-02T13:12:19.954Z,1.42
2023-02-02T13:14:57.878Z,0.80
2023-02-02T13:17:33.948Z,1.13
2023-02-02T13:20:11.652Z,1.73
2023-02-02T13:22:43.037Z,0.70
2023-02-02T13:25:23.396Z,1.60
2023-02-02T13:27:54.908Z,1.08
2023-02-02T13:30:26.994Z,1.00
2023-02-02T13:32:58.219Z,1.08
2023-02-02T13:35:35.444Z,1.10
2023-02-02T13:38:18.053Z,1.08
2023-02-02T13:40:44.838Z,0.70
2023-02-02T13:43:22.603Z,1.30
2023-02-02T13:46:29.650Z,0.82
2023-02-02T13:49:13.482Z,0.90
2023-02-02T13:51:54.046Z,0.70
2023-02-02T13:55:09.525Z,0.75
2023-02-02T13:57:53.053Z,1.08
2023-02-02T14:00:21.731Z,0.77
2023-02-02T14:02:52.280Z,0.67
2023-02-02T14:05:28.937Z,0.80
2023-02-02T14:08:04.776Z,0.55
2023-02-02T14:10:38.363Z,0.30
2023-02-02T14:13:36.255Z,0.50
2023-02-02T14:16:07.184Z,0.30
2023-02-02T14:18:52.221Z,0.30
2023-02-02T14:21:38.342Z,0.22
2023-02-02T14:24:26.479Z,0.40
2023-02-02T14:27:21.601Z,0.30
2023-02-02T14:29:48.163Z,0.20
2023-02-02T14:32:27.934Z,0.30
2023-02-02T14:35:01.335Z,0.30
2023-02-02T14:37:38.496Z,0.20
2023-02-02T14:40:32.331Z,0.30
2023-02-02T14:43:42.652Z,0.53
2023-02-02T14:46:15.187Z,0.30
2023-02-02T14:49:07.029Z,0.30
2023-02-02T14:51:45.928Z,0.30
2023-02-02T14:54:22.086Z,0.20
2023-02-02T14:56:54.156Z,0.20
2023-02-02T14:59:30.127Z,0.30
2023-02-02T15:02:15.271Z,0.20
2023-02-02T15:04:42.568Z,0.20
2023-02-02T15:07:37.300Z,0.20
2023-02-02T15:10:04.621Z,0.30
2023-02-02T15:12:45.864Z,0.30
2023-02-02T15:15:30.259Z,0.57
2023-02-02T15:18:13.210Z,0.35
2023-02-02T15:20:49.845Z,0.60
2023-02-02T15:23:40.468Z,0.50
2023-02-02T15:26:15.136Z,0.40
2023-02-02T15:28:41.688Z,0.52
2023-02-02T15:31:32.634Z,0.63
2023-02-02T15:34:14.390Z,0.55
2023-02-02T15:36:45.453Z,0.80
2023-02-02T15:39:30.003Z,0.82
2023-02-02T15:42:17.215Z,0.82
2023-02-02T15:44:44.067Z,0.52
2023-02-02T15:47:17.010Z,0.90
2023-02-02T15:49:45.410Z,0.77
2023-02-02T15:52:18.942Z,0.82
2023-02-02T15:54:58.498Z,1.42
2023-02-02T15:57:36.549Z,1.10
2023-02-02T16:00:29.313Z,0.70
2023-02-02T16:03:14.624Z,1.07
2023-02-02T16:05:52.376Z,0.55
2023-02-02T16:08:38.714Z,1.30
2023-02-02T16:11:09.888Z,0.80
2023-02-02T16:13:38.957Z,0.80
2023-02-02T16:16:20.910Z,1.07
2023-02-02T16:19:01.975Z,0.70
2023-02-02T16:21:30.084Z,0.93
2023-02-02T16:24:01.872Z,0.75
2023-02-02T16:26:32.828Z,1.00
2023-02-02T16:28:59.716Z,1.50
2023-02-02T16:31:28.972Z,0.82
2023-02-02T16:33:57.034Z,1.58
2023-02-02T16:36:26.694Z,1.52
2023-02-02T16:38:57.437Z,1.52
2023-02-02T16:41:33.807Z,1.23
2023-02-02T16:44:31.800Z,1.00
2023-02-02T16:47:02.479Z,1.85
2023-02-02T16:49:30.662Z,1.77
2023-02-02T16:52:11.471Z,1.70
2023-02-02T16:54:42.620Z,1.80
2023-02-02T16:57:18.175Z,2.10
2023-02-02T16:59:49.932Z,2.70
2023-02-02T17:02:31.076Z,2.25
2023-02-02T17:05:17.742Z,1.40
2023-02-02T17:07:51.577Z,2.40
2023-02-02T17:10:23.305Z,2.70
2023-02-02T17:12:49.754Z,2.25
2023-02-02T17:15:29.020Z,2.08
2023-02-02T17:17:55.997Z,2.45
2023-02-02T17:20:23.108Z,1.77
2023-02-02T17:22:54.304Z,2.45
2023-02-02T17:25:29.405Z,1.92
2023-02-02T17:27:58.483Z,2.67
2023-02-02T17:30:25.760Z,2.80
2023-02-02T17:32:52.423Z,2.47
2023-02-02T17:35:22.514Z,2.10
2023-02-02T17:37:51.795Z,1.63
2023-02-02T17:40:20.412Z,1.88
2023-02-02T17:42:50.508Z,2.13
2023-02-02T17:45:28.673Z,3.00
2023-02-02T17:47:55.267Z,2.88
2023-02-02T17:50:22.019Z,2.05
2023-02-02T17:52:49.939Z,3.45
2023-02-02T17:55:23.020Z,3.20
2023-02-02T17:57:51.177Z,2.97
2023-02-02T18:00:20.948Z,3.72
2023-02-02T18:02:50.119Z,3.75
2023-02-02T18:05:17.242Z,2.95
2023-02-02T18:07:44.389Z,2.67
2023-02-02T18:10:13.799Z,3.50
2023-02-02T18:12:40.640Z,3.53
2023-02-02T18:15:11.099Z,2.85
2023-02-02T18:17:37.747Z,3.42
2023-02-02T18:20:05.274Z,3.05
2023-02-02T18:22:32.575Z,2.60
2023-02-02T18:24:59.131Z,2.35
2023-02-02T18:27:26.123Z,3.05
2023-02-02T18:29:52.744Z,2.70
2023-02-02T18:32:19.296Z,2.58
2023-02-02T18:34:47.607Z,2.20
2023-02-02T18:37:14.151Z,2.60
2023-02-02T18:39:40.859Z,2.75
2023-02-02T18:42:07.494Z,2.47
2023-02-02T18:44:36.381Z,2.65
2023-02-02T18:47:02.980Z,3.07
2023-02-02T18:49:29.742Z,2.97
2023-02-02T18:51:56.382Z,2.72
2023-02-02T18:54:23.592Z,2.72
2023-02-02T18:56:50.588Z,2.00
2023-02-02T18:59:17.541Z,2.80
2023-02-02T19:01:44.118Z,3.17
2023-02-02T19:04:11.179Z,3.10
2023-02-02T19:06:56.638Z,3.75
2023-02-02T19:09:24.760Z,2.15
2023-02-02T19:11:54.987Z,2.13
2023-02-02T19:14:27.476Z,4.13
2023-02-02T19:17:08.253Z,2.55
2023-02-02T19:19:35.160Z,2.45
2023-02-02T19:22:13.644Z,3.58
2023-02-02T19:24:40.552Z,2.20
2023-02-02T19:27:22.132Z,3.53
2023-02-02T19:29:51.132Z,2.40
2023-02-02T19:32:23.278Z,2.45
2023-02-02T19:34:52.460Z,2.72
2023-02-02T19:37:30.673Z,3.07
2023-02-02T19:40:25.098Z,2.75
2023-02-02T19:42:57.064Z,2.30
2023-02-02T19:45:31.672Z,2.20
2023-02-02T19:48:00.524Z,3.20
2023-02-02T19:50:38.793Z,2.97
2023-02-02T19:53:16.328Z,3.75
2023-02-02T19:55:44.402Z,2.70
2023-02-02T19:58:19.761Z,3.45
2023-02-02T20:00:47.976Z,2.78
2023-02-02T20:03:23.493Z,2.77
2023-02-02T20:05:51.720Z,2.83
2023-02-02T20:08:41.742Z,2.70
2023-02-02T20:11:32.118Z,2.50
2023-02-02T20:14:00.798Z,3.83
2023-02-02T20:16:43.032Z,2.57
2023-02-02T20:19:20.220Z,2.10
2023-02-02T20:21:50.056Z,2.80
2023-02-02T20:24:25.249Z,2.50
2023-02-02T20:26:54.667Z,2.78
2023-02-02T20:29:25.019Z,2.40
2023-02-02T20:31:54.056Z,2.45
2023-02-02T20:34:23.045Z,2.80
2023-02-02T20:36:50.941Z,4.72
2023-02-02T20:39:37.019Z,2.90
2023-02-02T20:42:04.762Z,3.10
2023-02-02T20:44:33.339Z,2.50
2023-02-02T20:47:00.574Z,2.30
2023-02-02T20:49:31.600Z,2.40
2023-02-02T20:52:01.872Z,2.20
2023-02-02T20:54:30.707Z,1.80
2023-02-02T20:56:57.952Z,1.60
2023-02-02T20:59:24.718Z,1.52
2023-02-02T21:01:52.511Z,1.52
2023-02-02T21:04:19.930Z,1.80
2023-02-02T21:06:48.840Z,1.57
2023-02-02T21:09:16.372Z,1.65
2023-02-02T21:11:43.632Z,1.83
2023-02-02T21:14:10.351Z,1.27
2023-02-02T21:16:37.012Z,1.67
2023-02-02T21:19:03.564Z,1.67
2023-02-02T21:21:30.157Z,1.50
2023-02-02T21:23:56.724Z,1.90
2023-02-02T21:26:27.351Z,1.52
2023-02-02T21:28:54.104Z,2.00
2023-02-02T21:31:20.787Z,3.17
2023-02-02T21:33:48.102Z,2.17
2023-02-02T21:36:37.186Z,1.30
2023-02-02T21:39:21.617Z,1.92
2023-02-02T21:41:58.029Z,2.05
2023-02-02T21:44:26.843Z,1.90
2023-02-02T21:46:53.824Z,1.27
2023-02-02T21:49:26.429Z,1.85
2023-02-02T21:51:57.946Z,1.67
2023-02-02T21:54:27.374Z,1.45
2023-02-02T21:56:54.832Z,1.40
2023-02-02T21:59:29.241Z,1.58
2023-02-02T22:01:55.803Z,1.50
2023-02-02T22:04:28.970Z,1.50
2023-02-02T22:07:12.590Z,1.40
2023-02-02T22:09:41.407Z,1.27
2023-02-02T22:12:17.144Z,0.90
2023-02-02T22:14:45.928Z,1.25
2023-02-02T22:17:23.531Z,0.98
2023-02-02T22:19:56.083Z,0.93
2023-02-02T22:22:25.503Z,1.10
2023-02-02T22:25:16.171Z,1.13
2023-02-02T22:27:45.858Z,1.15
2023-02-02T22:30:38.753Z,1.08
2023-02-02T22:33:06.804Z,1.38
2023-02-02T22:35:34.181Z,2.00
2023-02-02T22:38:01.539Z,1.17
2023-02-02T22:40:28.854Z,1.05
2023-02-02T22:42:57.878Z,1.73
2023-02-02T22:45:24.892Z,1.70
2023-02-02T22:47:51.645Z,0.93
2023-02-02T22:50:21.832Z,0.93
2023-02-02T22:52:48.909Z,1.63
2023-02-02T22:55:16.331Z,0.90
2023-02-02T22:57:43.176Z,1.63
2023-02-02T23:00:16.652Z,1.20
2023-02-02T23:02:43.594Z,1.20
2023-02-02T23:05:12.712Z,1.75
2023-02-02T23:07:40.109Z,1.58
2023-02-02T23:10:07.770Z,3.78
2023-02-02T23:12:35.081Z,2.63
2023-02-02T23:15:01.956Z,1.65
2023-02-02T23:17:28.522Z,1.60
2023-02-02T23:19:55.081Z,1.00
2023-02-02T23:22:21.868Z,1.63
2023-02-02T23:24:48.590Z,2.03
2023-02-02T23:27:15.478Z,1.55
2023-02-02T23:29:42.105Z,1.77
2023-02-02T23:32:08.729Z,1.77
2023-02-02T23:34:35.436Z,1.60
2023-02-02T23:37:02.006Z,1.70
2023-02-02T23:39:28.547Z,0.98
2023-02-02T23:41:55.076Z,1.58
2023-02-02T23:44:21.875Z,1.33
2023-02-02T23:46:49.562Z,1.55
2023-02-02T23:49:16.559Z,1.10
2023-02-02T23:51:43.664Z,1.35
2023-02-02T23:54:12.301Z,1.17
2023-02-02T23:56:40.080Z,1.60
2023-02-02T23:59:06.774Z,1.77
